Hit Tracker is now ESPN Home Run Tracker! Hit Tracker founder Greg Rybarczyk is now collaborating with the ESPN Stats & Information Group to continue tracking all MLB home runs, and helping baseball fans know "How Far It Really Went!™" Please credit any information on this site to ESPN Stats & Information Group. For more information and analysis on home runs, please contact founder Greg Rybarczyk. E-Mail ESPN Home Run Tracker
Main Page | Ballparks | Park Overlays | Glossary | Highlight Homers | Feedback | Bio | 3 Types of HR's | AAA Home Run Derby Last Updated: May 24, 2016, 11:25 pm PST
If you want to know "How Far It Really Went!", then you've come to the right place! Welcome to the ESPN Home Run Tracker, where you can find accurate, transparently verifiable distances for every home run hit in MLB games. Please also check out the ESPN MLB Scoreboard throughout the 2016 season! Contact us at grybar@hittrackeronline.com.
Season:
Ballpark detail for Globe Life Park in Arlington
Ballpark # of Home Runs HR per game Avg.
True
Distance
Avg.
Speed
Off
Bat
Avg.
Std.
Dist.
Globe Life Park in Arlington 60 2.61 409.2 106.8 408

Scatter Plot of Home Runs Globe Life Park in Arlington
 Overlay Ballpark:
Without range rings   With range rings

2016 Season Home Runs for Globe Life Park in Arlington
Click headers to sort
Date ^ Video Path Hitter Hitter
Team
Pitcher Pitcher
Team
INN Ballpark Type/
Luck
True
Dist.
Speed
Off
Bat
Elev.
Angle
Horiz.
Angle
Apex Impact Due To: Std.
Dist.
#
Parks
Wind Temp. Alt.
05/24/16 Video View Mazara, Nomar TEX Chacin, Jhoulys LAA 6 Globe Life P... ND 413 108.5 27.4 66.9 88 -7 1 1 417 30
05/23/16 Video View Pujols, Albert LAA Holland, Derek TEX 3 Globe Life P... ND 439 109.1 27.0 103.1 98 -2 1 2 438 30
05/15/16 Video View Desmond, Ian TEX Chavez, Jesse TOR 7 Globe Life P... PL 410 104.9 25.2 102.5 79 -1 0 0 410 30
05/15/16 Video View Beltre, Adrian TEX Sanchez, Aaron TOR 6 Globe Life P... JE 410 101.0 29.1 93.4 102 -1 0 1 409 18
05/14/16 Video View Wilson, Bobby TEX Estrada, Marco TOR 2 Globe Life P... PL 420 105.0 24.9 97.5 82 0 0 1 419 30
05/14/16 Video View Goins, Ryan TOR Lewis, Colby TEX 3 Globe Life P... PL 377 98.8 35.8 68.8 119 9 0 2 366 23
05/14/16 Video View Smoak, Justin TOR Tolleson, Shawn TEX 9 Globe Life P... PL 405 106.6 24.1 74.2 71 0 0 1 405 29
05/14/16 Video View Tulowitzki, Troy TOR Tolleson, Shawn TEX 9 Globe Life P... JE 369 101.1 28.0 120.3 73 0 0 1 368 30
05/14/16 Video View Stubbs, Drew TEX Floyd, Gavin TOR 10 Globe Life P... PL 396 101.6 28.5 105.8 90 0 0 1 395 30
05/13/16 Video View Encarnacion, Edwin TOR Wilhelmsen, Tom TEX 8 Globe Life P... ND 409 105.8 32.3 109.9 119 -5 3 2 410 30
05/13/16 Video View Tulowitzki, Troy TOR Wilhelmsen, Tom TEX 8 Globe Life P... JE 411 109.8 22.1 104.6 64 0 1 0 410 30
05/11/16 Video View Frazier, Todd CHW Hamels, Cole TEX 4 Globe Life P... PL 390 103.4 29.3 118.1 85 -1 2 1 388 30
05/11/16 Video View Lawrie, Brett CHW Hamels, Cole TEX 4 Globe Life P... JE 405 105.7 22.3 98.7 66 0 1 0 405 18
05/10/16 Video View Holaday, Bryan TEX Rodon, Carlos CHW 3 Globe Life P... PL 376 100.4 30.5 118.1 87 -1 1 1 375 30
05/10/16 Video View Desmond, Ian TEX Rodon, Carlos CHW 7 Globe Life P... JE 378 103.1 26.5 117.4 70 0 1 0 377 30
05/10/16 Video View Rua, Ryan TEX Albers, Matt CHW 8 Globe Life P... PL 447 113.6 19.4 91.4 66 0 0 0 447 29
05/09/16 Video View Frazier, Todd CHW Lewis, Colby TEX 6 Globe Life P... PL 376 102.2 28.6 122.6 76 1 1 1 374 30
05/09/16 Video View Odor, Rougned TEX Gonzalez, Miguel CHW 6 Globe Life P... PL 392 107.4 24.3 64.8 65 0 0 0 391 30
05/09/16 Video View Frazier, Todd CHW Ramos, Cesar TEX 12 Globe Life P... PL 395 103.1 30.7 110.2 102 -7 1 2 398 30
05/01/16 Video View Soto, Geovany LAA Diekman, Jake TEX 8 Globe Life P... PL 393 108.2 24.8 119.1 66 0 1 1 392 30
04/30/16 Video View Moreland, Mitch TEX Shoemaker, Matt LAA 3 Globe Life P... ND 432 113.7 26.6 60.0 83 1 1 1 430 30
04/30/16 Video View Pujols, Albert LAA Klein, Phil TEX 9 Globe Life P... PL 427 110.1 20.5 95.0 65 0 0 0 427 26
04/29/16 Video View Soto, Geovany LAA Lewis, Colby TEX 3 Globe Life P... ND 416 107.3 26.8 110.7 84 1 1 1 413 30
04/29/16 Video View Rua, Ryan TEX Santiago, Hector LAA 5 Globe Life P... ND 420 107.4 28.3 109.6 96 -2 1 2 420 30
04/27/16 Video View Rodriguez, Alex NYY Perez, Martin TEX 4 Globe Life P... PL 409 103.1 32.6 102.1 122 -1 2 2 406 30
04/26/16 Video View Desmond, Ian TEX Nova, Ivan NYY 5 Globe Life P... PL 433 110.9 20.1 93.1 65 0 1 1 432 27
04/26/16 Video View Odor, Rougned TEX Shreve, Chasen NYY 8 Globe Life P... PL 416 105.5 23.6 82.2 75 0 1 0 415 27
04/25/16 Video View Ellsbury, Jacoby NYY Ramos, Cesar TEX 3 Globe Life P... PL 422 104.4 29.7 80.3 110 -3 2 2 421 29
04/25/16 Video View Castro, Starlin NYY Ramos, Cesar TEX 6 Globe Life P... JE 401 102.4 26.7 102.6 83 -2 1 1 401 30
04/25/16 Video View Nicholas, Brett TEX Betances, Dellin NYY 8 Globe Life P... JE/L 365 98.0 37.5 72.7 131 2 2 2 357 12
04/21/16 Video View Desmond, Ian TEX Keuchel, Dallas HOU 1 Globe Life P... PL 408 107.9 21.6 79.7 63 0 0 0 407 25
04/21/16 Video View Rasmus, Colby HOU Griffin, A.J. TEX 4 Globe Life P... PL 423 106.2 25.6 78.8 85 0 1 1 421 29
04/21/16 Video View Beltre, Adrian TEX Neshek, Pat HOU 7 Globe Life P... JE 419 109.1 20.0 93.7 62 0 0 0 419 20
04/21/16 Video View Rasmus, Colby HOU Barnette, Tony TEX 8 Globe Life P... PL 394 102.9 28.2 68.9 85 0 0 1 393 30
04/20/16 Video View Odor, Rougned TEX Fister, Doug HOU 2 Globe Life P... PL 398 104.5 34.0 67.3 123 0 0 2 395 30
04/20/16 Video View White, Tyler HOU Hamels, Cole TEX 6 Globe Life P... JE 410 110.6 20.4 100.5 59 0 -1 0 410 25
04/19/16 Video View Fielder, Prince TEX Feldman, Scott HOU 1 Globe Life P... ND 423 110.3 28.2 63.2 92 -2 0 1 423 30
04/19/16 Video View Altuve, Jose HOU Kela, Keone TEX 7 Globe Life P... PL 409 108.4 24.2 108.5 71 0 -1 1 409 30
04/19/16 Video View Springer, George HOU Kela, Keone TEX 7 Globe Life P... JE 414 103.4 24.0 88.5 78 0 0 0 413 20
04/19/16 Video View Moreland, Mitch TEX Devenski, Chris HOU 7 Globe Life P... JE 369 111.3 20.0 63.2 46 0 0 0 369 13
04/16/16 Video View Machado, Manny BAL Lewis, Colby TEX 1 Globe Life P... JE 413 114.6 18.8 100.2 53 0 0 0 413 25
04/16/16 Video View Jones, Adam BAL Lewis, Colby TEX 3 Globe Life P... ND 460 112.4 24.7 97.9 96 -2 0 1 461 30
04/16/16 Video View Davis, Chris BAL Lewis, Colby TEX 5 Globe Life P... JE 384 107.3 21.5 73.0 56 0 0 0 384 17
04/15/16 Video View Moreland, Mitch TEX Worley, Vance BAL 2 Globe Life P... PL 415 104.2 25.8 98.7 86 -1 0 1 415 29
04/15/16 Video View Schoop, Jonathan BAL Wilhelmsen, Tom TEX 7 Globe Life P... ND 406 110.9 25.3 121.6 71 0 0 1 406 30
04/15/16 Video View Reimold, Nolan BAL Wilhelmsen, Tom TEX 7 Globe Life P... PL 401 105.1 25.9 108.8 77 0 0 1 400 30
04/15/16 Video View Trumbo, Mark BAL Perez, Martin TEX 7 Globe Life P... PL 432 112.8 18.4 90.6 59 0 0 0 432 27
04/15/16 Video View Trumbo, Mark BAL Faulkner, Andrew TEX 7 Globe Life P... PL 432 116.5 19.5 101.0 59 0 -1 0 432 30
04/15/16 Video View Schoop, Jonathan BAL Faulkner, Andrew TEX 8 Globe Life P... ND 413 107.6 32.1 113.9 116 -1 -1 2 414 30
04/14/16 Video View Trumbo, Mark BAL Hamels, Cole TEX 4 Globe Life P... PL 412 105.6 23.5 80.8 73 0 0 1 411 28
04/06/16 Video View Cano, Robinson SEA Lewis, Colby TEX 1 Globe Life P... PL 417 102.2 33.5 81.4 125 11 1 3 403 28
04/06/16 Video View Martin, Leonys SEA Lewis, Colby TEX 2 Globe Life P... JE 382 107.7 21.4 71.9 54 0 1 1 381 16
04/06/16 Video View Fielder, Prince TEX Miley, Wade SEA 6 Globe Life P... ND 449 110.2 25.9 78.5 94 2 1 1 445 30
04/06/16 Video View Cano, Robinson SEA Tolleson, Shawn TEX 9 Globe Life P... JE 427 107.5 22.7 84.2 74 0 0 0 426 26
04/05/16 Video View Cruz, Nelson SEA Perez, Martin TEX 4 Globe Life P... PL 425 111.1 21.8 101.5 67 0 0 1 424 30
04/05/16 Video View Cano, Robinson SEA Wilhelmsen, Tom TEX 8 Globe Life P... ND 432 107.7 31.8 77.5 129 0 0 2 429 30
04/05/16 Video View Smith, Seth SEA Wilhelmsen, Tom TEX 8 Globe Life P... ND 417 109.6 27.9 61.8 88 -1 0 2 416 30
04/05/16 Video View Sardinas, Luis SEA Faulkner, Andrew TEX 8 Globe Life P... PL 405 104.2 34.1 106.9 129 3 0 3 400 30
04/04/16 Video View Cano, Robinson SEA Hamels, Cole TEX 1 Globe Life P... JE 391 112.4 19.8 72.4 50 0 1 0 390 22
04/04/16 Video View Seager, Kyle SEA Hamels, Cole TEX 2 Globe Life P... PL 422 103.6 30.3 83.3 114 -2 2 2 420 28


About HitTracker | Contact Us
© 2006-2016 HitTrackerOnline